Etusivu
METAR-TAF:

METAR-TAF

Lentoasemat :

Gloucester, Englanti

Leveyspiiri: 51-54N, Pituuspiiri: 002-10W, korkeus merenpinnasta: 29 m

Tämänhetkinen sää

Tämä raportti tehtiin 7 tuntia ja 14 minuuttia sitten, kello 18.20 UTC
Tuuli 5 kn lounaasta
Lämpötila 25°C
Kosteus 61%
Ilmanpaine 1017 hPa
Näkyvyys 10 km tai enemmän
ei pilviä alle 1500 m:ssä eikä cumulonimbus-pilviä

METAR: EGBJ 251820Z 22005KT CAVOK 25/17 Q1017

Aika: 02:34 (01:34 UTC)

Sääennuste

Tämä raportti tehtiin 11 tuntia ja 40 minuuttia sitten, kello 13.54 UTC
Ennuste voimassa 25. päivästä klo 15 UTC - 25. päivään klo 19 UTC
Tuuli 3 kn eri suunnista
Näkyvyys 10 km tai enemmän
Muutamia pilviä 4500 ft:n korkeudessa

TAF: EGBJ 251354Z 2515/2519 VRB03KT 9999 FEW045

Säähavainnot ja -ennusteet yli 4000 lentoasemalta (METAR- ja TAF-raportit).

Käytössä olevat sääasemat on merkitty karttaan keltaisilla ja punaisilla pisteillä.

Aseta hiiri pisteen päälle nähdäksesi sääaseman nimen.

Klikkaa sitten nähdäksesi säähavainnot ja -ennusteet.

Kartan vaihtaminen: klikkaa mustalla rastilla varustettuja vihreitä pisteitä, niin voit zoomata sisään; viivalla varustettua vihreää pistettä, niin voit zoomata ulos tai vihreitä nuolia, niin pääset viereisille kartoille.


METAR-TAF: